createdAt,value
2023-04-21T00:01:36.680Z,9.60
2023-04-21T00:04:09.957Z,9.58
2023-04-21T00:06:42.718Z,9.54
2023-04-21T00:09:14.478Z,9.52
2023-04-21T00:11:46.115Z,9.48
2023-04-21T00:14:18.103Z,9.42
2023-04-21T00:16:51.304Z,9.39
2023-04-21T00:19:23.984Z,9.36
2023-04-21T00:21:57.218Z,9.32
2023-04-21T00:24:28.977Z,9.33
2023-04-21T00:27:01.117Z,9.32
2023-04-21T00:29:32.830Z,9.33
2023-04-21T00:32:06.063Z,9.34
2023-04-21T00:34:37.929Z,9.34
2023-04-21T00:37:09.499Z,9.35
2023-04-21T00:39:42.672Z,9.34
2023-04-21T00:42:17.424Z,9.34
2023-04-21T00:44:49.292Z,9.33
2023-04-21T00:47:21.085Z,9.31
2023-04-21T00:49:54.047Z,9.28
2023-04-21T00:52:25.642Z,9.27
2023-04-21T00:54:57.605Z,9.23
2023-04-21T00:57:29.863Z,9.21
2023-04-21T01:00:01.510Z,9.21
2023-04-21T01:02:35.535Z,9.18
2023-04-21T01:05:09.721Z,9.15
2023-04-21T01:07:42.844Z,9.15
2023-04-21T01:10:14.465Z,9.16
2023-04-21T01:12:48.000Z,9.18
2023-04-21T01:15:19.621Z,9.18
2023-04-21T01:17:52.977Z,9.18
2023-04-21T01:20:24.519Z,9.18
2023-04-21T01:22:56.096Z,9.18
2023-04-21T01:25:29.281Z,9.16
2023-04-21T01:28:00.829Z,9.11
2023-04-21T01:30:33.131Z,9.10
2023-04-21T01:33:04.816Z,9.05
2023-04-21T01:35:36.921Z,9.03
2023-04-21T01:38:08.608Z,8.99
2023-04-21T01:40:42.069Z,9.00
2023-04-21T01:43:14.305Z,9.00
2023-04-21T01:45:46.081Z,8.98
2023-04-21T01:48:17.776Z,8.93
2023-04-21T01:50:49.564Z,8.90
2023-04-21T01:53:21.148Z,8.89
2023-04-21T01:55:52.676Z,8.89
2023-04-21T01:58:24.642Z,8.84
2023-04-21T02:00:56.280Z,8.81
2023-04-21T02:03:28.809Z,8.80
2023-04-21T02:06:00.929Z,8.79
2023-04-21T02:08:32.576Z,8.80
2023-04-21T02:11:04.858Z,8.79
2023-04-21T02:13:37.031Z,8.77
2023-04-21T02:16:13.893Z,8.79
2023-04-21T02:18:44.608Z,8.82
2023-04-21T02:21:16.477Z,8.84
2023-04-21T02:23:48.101Z,8.84
2023-04-21T02:26:20.553Z,8.83
2023-04-21T02:28:52.157Z,8.80
2023-04-21T02:31:23.692Z,8.78
2023-04-21T02:33:56.131Z,8.76
2023-04-21T02:36:27.885Z,8.73
2023-04-21T02:39:01.391Z,8.71
2023-04-21T02:41:33.177Z,8.70
2023-04-21T02:44:05.161Z,8.69
2023-04-21T02:46:36.861Z,8.68
2023-04-21T02:49:09.116Z,8.67
2023-04-21T02:51:40.711Z,8.69
2023-04-21T02:54:12.583Z,8.71
2023-04-21T02:56:44.121Z,8.74
2023-04-21T02:59:16.973Z,8.77
2023-04-21T03:01:49.305Z,8.81
2023-04-21T03:04:21.089Z,8.80
2023-04-21T03:06:54.209Z,8.82
2023-04-21T03:09:25.994Z,8.80
2023-04-21T03:11:57.937Z,8.79
2023-04-21T03:14:29.448Z,8.80
2023-04-21T03:17:00.987Z,8.80
2023-04-21T03:19:34.482Z,8.78
2023-04-21T03:22:06.565Z,8.75
2023-04-21T03:24:39.023Z,8.74
2023-04-21T03:27:11.234Z,8.71
2023-04-21T03:29:43.045Z,8.72
2023-04-21T03:32:14.740Z,8.73
2023-04-21T03:34:47.176Z,8.72
2023-04-21T03:37:18.771Z,8.76
2023-04-21T03:39:50.353Z,8.81
2023-04-21T03:42:22.732Z,8.84
2023-04-21T03:44:54.808Z,8.85
2023-04-21T03:47:26.906Z,8.88
2023-04-21T03:49:58.463Z,8.90
2023-04-21T03:52:30.562Z,8.93
2023-04-21T03:55:02.253Z,8.96
2023-04-21T03:57:34.502Z,8.97
2023-04-21T04:00:07.031Z,9.03
2023-04-21T04:02:41.774Z,9.05
2023-04-21T04:05:13.642Z,9.11
2023-04-21T04:07:46.210Z,9.12
2023-04-21T04:10:17.869Z,9.14
2023-04-21T04:12:49.805Z,9.18
2023-04-21T04:15:21.378Z,9.20
2023-04-21T04:17:53.500Z,9.23
2023-04-21T04:20:25.187Z,9.28
2023-04-21T04:22:57.512Z,9.31
2023-04-21T04:25:29.310Z,9.34
2023-04-21T04:28:00.973Z,9.37
2023-04-21T04:30:33.419Z,9.41
2023-04-21T04:33:05.687Z,9.46
2023-04-21T04:35:37.789Z,9.51
2023-04-21T04:38:09.297Z,9.57
2023-04-21T04:40:42.546Z,9.66
2023-04-21T04:43:15.183Z,9.76
2023-04-21T04:45:46.764Z,9.86
2023-04-21T04:48:18.812Z,9.94
2023-04-21T04:50:50.563Z,10.05
2023-04-21T04:53:22.119Z,10.20
2023-04-21T04:55:54.178Z,10.38
2023-04-21T04:58:25.646Z,10.64
2023-04-21T05:00:57.144Z,10.90
2023-04-21T05:03:29.437Z,11.13
2023-04-21T05:06:01.242Z,11.33
2023-04-21T05:08:32.916Z,11.52
2023-04-21T05:11:04.786Z,11.68
2023-04-21T05:13:46.636Z,11.77
2023-04-21T05:16:18.382Z,11.90
2023-04-21T05:18:56.598Z,12.03
2023-04-21T05:21:28.423Z,12.13
2023-04-21T05:24:01.227Z,12.11
2023-04-21T05:26:32.809Z,12.06
2023-04-21T05:29:04.377Z,12.11
2023-04-21T05:31:36.175Z,12.21
2023-04-21T05:34:13.306Z,12.30
2023-04-21T05:36:44.978Z,12.31
2023-04-21T05:39:17.886Z,12.38
2023-04-21T05:41:49.405Z,12.56
2023-04-21T05:44:21.492Z,12.82
2023-04-21T05:46:53.755Z,13.07
2023-04-21T05:49:25.474Z,13.30
2023-04-21T05:51:57.024Z,13.52
2023-04-21T05:54:28.720Z,13.70
2023-04-21T05:57:01.328Z,13.81
2023-04-21T05:59:33.430Z,13.98
2023-04-21T06:02:05.198Z,14.12
2023-04-21T06:04:37.227Z,14.24
2023-04-21T06:07:10.622Z,14.36
2023-04-21T06:09:42.580Z,14.50
2023-04-21T06:12:14.190Z,14.54
2023-04-21T06:14:45.906Z,14.59
2023-04-21T06:17:18.911Z,14.67
2023-04-21T06:19:52.455Z,14.78
2023-04-21T06:22:24.873Z,14.95
2023-04-21T06:24:56.948Z,14.98
2023-04-21T06:27:29.532Z,15.03
2023-04-21T06:30:01.351Z,15.06
2023-04-21T06:32:33.562Z,15.15
2023-04-21T06:35:17.008Z,15.28
2023-04-21T06:37:48.732Z,15.36
2023-04-21T06:40:20.503Z,15.31
2023-04-21T06:42:52.076Z,15.21
2023-04-21T06:45:24.759Z,15.34
2023-04-21T06:47:56.419Z,15.50
2023-04-21T06:50:28.035Z,15.71
2023-04-21T06:52:59.798Z,15.95
2023-04-21T06:55:31.462Z,16.17
2023-04-21T06:58:03.201Z,16.32
2023-04-21T07:00:35.531Z,16.53
2023-04-21T07:03:07.511Z,16.70
2023-04-21T07:05:40.029Z,16.78
2023-04-21T07:08:11.882Z,16.89
2023-04-21T07:10:44.258Z,17.05
2023-04-21T07:13:16.151Z,17.25
2023-04-21T07:15:47.808Z,17.50
2023-04-21T07:18:19.793Z,17.69
2023-04-21T07:20:52.694Z,17.86
2023-04-21T07:23:24.492Z,17.96
2023-04-21T07:25:56.184Z,18.06
2023-04-21T07:28:28.003Z,18.22
2023-04-21T07:31:01.623Z,18.35
2023-04-21T07:33:33.814Z,18.28
2023-04-21T07:36:06.352Z,18.12
2023-04-21T07:38:38.422Z,17.93
2023-04-21T07:41:12.326Z,17.71
2023-04-21T07:43:44.134Z,17.61
2023-04-21T07:46:15.954Z,17.46
2023-04-21T07:48:47.806Z,17.50
2023-04-21T07:51:19.946Z,17.80
2023-04-21T07:53:52.286Z,18.01
2023-04-21T07:56:23.752Z,18.09
2023-04-21T07:58:55.752Z,18.18
2023-04-21T08:01:27.330Z,18.27
2023-04-21T08:03:58.998Z,18.37
2023-04-21T08:06:33.374Z,18.48
2023-04-21T08:09:05.462Z,18.71
2023-04-21T08:11:37.576Z,18.90
2023-04-21T08:14:11.046Z,18.99
2023-04-21T08:16:43.072Z,19.03
2023-04-21T08:19:14.917Z,19.08
2023-04-21T08:21:46.777Z,19.26
2023-04-21T08:24:19.014Z,19.40
2023-04-21T08:26:50.800Z,19.31
2023-04-21T08:29:23.115Z,19.18
2023-04-21T08:31:55.296Z,19.24
2023-04-21T08:34:27.897Z,19.40
2023-04-21T08:36:59.831Z,19.65
2023-04-21T08:39:31.749Z,19.65
2023-04-21T08:42:03.792Z,19.26
2023-04-21T08:44:35.659Z,18.85
2023-04-21T08:47:07.446Z,18.54
2023-04-21T08:49:39.716Z,18.21
2023-04-21T08:52:12.476Z,17.83
2023-04-21T08:54:44.093Z,17.45
2023-04-21T08:57:16.408Z,17.24
2023-04-21T08:59:48.110Z,17.25
2023-04-21T09:02:20.390Z,17.39
2023-04-21T09:04:52.857Z,17.41
2023-04-21T09:07:36.470Z,17.39
2023-04-21T09:10:08.766Z,17.52
2023-04-21T09:12:44.001Z,17.56
2023-04-21T09:15:16.027Z,17.50
2023-04-21T09:17:48.122Z,17.45
2023-04-21T09:20:21.474Z,17.44
2023-04-21T09:22:53.275Z,17.55
2023-04-21T09:25:25.090Z,17.63
2023-04-21T09:27:56.828Z,17.47
2023-04-21T09:30:28.481Z,17.28
2023-04-21T09:33:00.557Z,17.05
2023-04-21T09:35:40.416Z,16.82
2023-04-21T09:38:13.205Z,16.43
2023-04-21T09:40:44.726Z,16.11
2023-04-21T09:43:16.776Z,15.86
2023-04-21T09:45:48.309Z,15.72
2023-04-21T09:48:22.308Z,15.72
2023-04-21T09:51:22.807Z,15.72
2023-04-21T09:53:26.789Z,15.73
2023-04-21T09:55:58.483Z,15.70
2023-04-21T09:58:31.528Z,15.65
2023-04-21T10:01:04.892Z,15.51
2023-04-21T10:03:37.862Z,15.41
2023-04-21T10:06:09.842Z,15.38
2023-04-21T10:08:42.589Z,15.46
2023-04-21T10:11:14.509Z,15.57
2023-04-21T10:13:46.519Z,15.54
2023-04-21T10:16:18.475Z,15.42
2023-04-21T10:18:51.181Z,15.27
2023-04-21T10:21:27.284Z,15.12
2023-04-21T10:23:59.183Z,14.96
2023-04-21T10:26:35.936Z,14.78
2023-04-21T10:29:09.491Z,14.69
2023-04-21T10:31:54.076Z,14.58
2023-04-21T10:34:39.084Z,14.44
2023-04-21T10:37:12.585Z,14.39
2023-04-21T10:39:54.627Z,14.45
2023-04-21T10:42:27.726Z,14.60
2023-04-21T10:45:05.144Z,14.93
2023-04-21T10:47:45.491Z,15.36
2023-04-21T10:50:26.923Z,15.68
2023-04-21T10:53:12.292Z,15.98
2023-04-21T10:55:43.892Z,16.15
2023-04-21T10:58:16.873Z,16.26
2023-04-21T11:00:48.594Z,16.25
2023-04-21T11:03:20.944Z,16.29
2023-04-21T11:05:53.035Z,16.19
2023-04-21T11:08:24.865Z,16.04
2023-04-21T11:10:56.469Z,15.96
2023-04-21T11:13:30.689Z,15.85
2023-04-21T11:16:04.408Z,15.76
2023-04-21T11:18:41.418Z,15.76
2023-04-21T11:21:18.851Z,15.77
2023-04-21T11:23:51.619Z,15.78
2023-04-21T11:26:38.909Z,15.71
2023-04-21T11:29:21.561Z,15.70
2023-04-21T11:31:53.972Z,15.71
2023-04-21T11:34:26.711Z,15.79
2023-04-21T11:36:58.295Z,15.91
2023-04-21T11:39:32.000Z,15.99
2023-04-21T11:42:03.598Z,16.03
2023-04-21T11:44:40.732Z,16.07
2023-04-21T11:47:17.561Z,16.13
2023-04-21T11:50:01.157Z,16.31
2023-04-21T11:52:36.627Z,16.50
2023-04-21T11:55:15.627Z,16.76
2023-04-21T11:57:47.739Z,16.98
2023-04-21T12:00:20.337Z,17.09
2023-04-21T12:02:58.721Z,17.21
2023-04-21T13:05:47.403Z,16.52
2023-04-21T13:11:00.260Z,16.60
2023-04-21T13:13:33.142Z,16.67
2023-04-21T13:16:04.766Z,16.75
2023-04-21T13:18:37.657Z,16.74
2023-04-21T13:21:09.520Z,16.69
2023-04-21T13:23:41.222Z,16.67
2023-04-21T13:26:13.721Z,16.68
2023-04-21T13:28:45.702Z,16.68
2023-04-21T13:31:17.701Z,16.68
2023-04-21T13:33:49.761Z,16.70
2023-04-21T13:36:23.194Z,16.74
2023-04-21T13:38:56.150Z,16.80
2023-04-21T13:41:28.454Z,16.86
2023-04-21T13:44:00.597Z,16.94
2023-04-21T13:46:32.426Z,16.98
2023-04-21T13:49:03.961Z,16.98
2023-04-21T13:51:35.675Z,16.95
2023-04-21T13:54:07.631Z,16.90
2023-04-21T13:56:39.556Z,16.85
2023-04-21T13:59:12.075Z,16.84
2023-04-21T14:01:43.617Z,16.76
2023-04-21T14:04:15.627Z,16.69
2023-04-21T14:06:47.685Z,16.59
2023-04-21T14:09:19.311Z,16.58
2023-04-21T14:11:51.204Z,16.59
2023-04-21T14:14:37.532Z,16.62
2023-04-21T14:19:40.381Z,16.47
2023-04-21T14:22:12.103Z,16.43
2023-04-21T14:24:43.846Z,16.42
2023-04-21T14:27:15.584Z,16.38
2023-04-21T14:29:47.161Z,16.31
2023-04-21T14:32:20.948Z,16.23
2023-04-21T14:34:57.446Z,16.18
2023-04-21T14:37:29.235Z,16.14
2023-04-21T14:40:01.034Z,16.12
2023-04-21T14:42:33.479Z,16.12
2023-04-21T14:45:05.739Z,16.10
2023-04-21T14:47:38.598Z,16.07
2023-04-21T14:50:10.657Z,16.03
2023-04-21T14:52:42.277Z,15.99
2023-04-21T14:55:13.835Z,15.95
2023-04-21T14:57:47.040Z,15.88
2023-04-21T15:00:19.658Z,15.81
2023-04-21T15:02:53.144Z,15.80
2023-04-21T15:05:24.974Z,15.75
2023-04-21T15:07:56.606Z,15.73
2023-04-21T15:13:12.460Z,15.62
2023-04-21T15:15:44.057Z,15.58
2023-04-21T15:18:15.959Z,15.53
2023-04-21T15:20:47.642Z,15.48
2023-04-21T15:23:20.359Z,15.41
2023-04-21T15:25:52.776Z,15.34
2023-04-21T15:28:24.811Z,15.26
2023-04-21T15:30:56.514Z,15.18
2023-04-21T15:33:28.538Z,15.11
2023-04-21T15:36:00.348Z,15.04
2023-04-21T15:38:32.354Z,14.99
2023-04-21T15:41:03.942Z,14.92
2023-04-21T15:43:36.795Z,14.85
2023-04-21T15:46:10.095Z,14.77
2023-04-21T15:48:41.844Z,14.68
2023-04-21T15:51:13.761Z,14.61
2023-04-21T15:53:47.241Z,14.54
2023-04-21T15:56:19.222Z,14.55
2023-04-21T15:58:51.196Z,14.56
2023-04-21T16:01:23.600Z,14.59
2023-04-21T16:03:55.805Z,14.59
2023-04-21T16:06:29.422Z,14.59
2023-04-21T16:09:01.340Z,14.59
2023-04-21T16:11:34.510Z,14.58
2023-04-21T16:14:06.343Z,14.53
2023-04-21T16:16:38.137Z,14.48
2023-04-21T16:19:09.981Z,14.46
2023-04-21T16:21:42.688Z,14.41
2023-04-21T16:24:14.426Z,14.33
2023-04-21T16:26:46.198Z,14.24
2023-04-21T16:29:18.261Z,14.19
2023-04-21T16:31:49.961Z,14.15
2023-04-21T16:34:21.693Z,14.14
2023-04-21T16:36:53.457Z,14.12
2023-04-21T16:39:25.239Z,14.12
2023-04-21T16:41:56.915Z,14.13
2023-04-21T16:44:28.719Z,14.09
2023-04-21T16:47:00.420Z,14.07
2023-04-21T16:49:32.563Z,14.05
2023-04-21T16:52:04.533Z,14.03
2023-04-21T16:54:36.574Z,14.01
2023-04-21T16:57:09.573Z,13.98
2023-04-21T16:59:41.429Z,13.95
2023-04-21T17:02:13.434Z,13.92
2023-04-21T17:04:46.228Z,13.90
2023-04-21T17:07:18.453Z,13.88
2023-04-21T17:09:51.459Z,13.87
2023-04-21T17:12:24.174Z,13.86
2023-04-21T17:14:56.385Z,13.86
2023-04-21T17:17:28.214Z,13.83
2023-04-21T17:19:59.847Z,13.76
2023-04-21T17:22:31.717Z,13.67
2023-04-21T17:25:04.820Z,13.56
2023-04-21T17:27:37.763Z,13.48
2023-04-21T17:30:10.359Z,13.40
2023-04-21T17:32:42.278Z,13.35
2023-04-21T17:35:14.346Z,13.29
2023-04-21T17:37:46.703Z,13.18
2023-04-21T17:40:18.747Z,13.06
2023-04-21T17:42:50.443Z,12.95
2023-04-21T17:45:22.124Z,12.84
2023-04-21T17:47:54.054Z,12.80
2023-04-21T17:50:27.649Z,12.78
2023-04-21T17:52:59.741Z,12.77
2023-04-21T17:55:32.832Z,12.73
2023-04-21T17:58:04.421Z,12.70
2023-04-21T18:00:36.362Z,12.67
2023-04-21T18:03:08.704Z,12.61
2023-04-21T18:05:40.978Z,12.54
2023-04-21T18:08:12.793Z,12.52
2023-04-21T18:10:45.211Z,12.48
2023-04-21T18:13:17.330Z,12.46
2023-04-21T18:15:49.230Z,12.47
2023-04-21T18:18:21.024Z,12.48
2023-04-21T18:20:52.870Z,12.43
2023-04-21T18:23:24.695Z,12.39
2023-04-21T18:25:56.441Z,12.38
2023-04-21T18:28:29.512Z,12.39
2023-04-21T18:31:01.709Z,12.39
2023-04-21T18:33:33.580Z,12.42
2023-04-21T18:36:06.103Z,12.42
2023-04-21T18:38:37.879Z,12.42
2023-04-21T18:41:10.037Z,12.41
2023-04-21T18:43:41.864Z,12.44
2023-04-21T18:46:13.812Z,12.43
2023-04-21T18:48:45.741Z,12.45
2023-04-21T18:51:17.584Z,12.46
2023-04-21T18:53:49.372Z,12.46
2023-04-21T18:56:21.761Z,12.45
2023-04-21T18:58:53.770Z,12.43
2023-04-21T19:01:25.692Z,12.43
2023-04-21T19:03:57.815Z,12.42
2023-04-21T19:06:29.789Z,12.41
2023-04-21T19:09:02.043Z,12.44
2023-04-21T19:11:34.400Z,12.44
2023-04-21T19:14:06.934Z,12.45
2023-04-21T19:16:40.768Z,12.46
2023-04-21T19:19:12.984Z,12.44
2023-04-21T19:21:45.152Z,12.43
2023-04-21T19:24:17.169Z,12.37
2023-04-21T19:26:48.831Z,12.28
2023-04-21T19:29:20.659Z,12.20
2023-04-21T19:31:52.447Z,12.11
2023-04-21T19:34:24.188Z,12.04
2023-04-21T19:36:55.890Z,11.99
2023-04-21T19:39:27.495Z,11.95
2023-04-21T19:41:59.316Z,11.94
2023-04-21T19:44:31.366Z,11.92
2023-04-21T19:47:03.103Z,11.90
2023-04-21T19:49:35.616Z,11.91
2023-04-21T19:52:07.346Z,11.92
2023-04-21T19:54:40.746Z,11.92
2023-04-21T19:57:12.822Z,11.89
2023-04-21T19:59:44.601Z,11.88
2023-04-21T20:02:16.460Z,11.85
2023-04-21T20:04:49.248Z,11.82
2023-04-21T20:07:21.074Z,11.81
2023-04-21T20:09:52.771Z,11.78
2023-04-21T20:12:24.811Z,11.79
2023-04-21T20:14:56.510Z,11.77
2023-04-21T20:17:29.084Z,11.76
2023-04-21T20:20:01.253Z,11.74
2023-04-21T20:22:33.258Z,11.72
2023-04-21T20:25:06.086Z,11.72
2023-04-21T20:27:37.837Z,11.72
2023-04-21T20:30:09.731Z,11.71
2023-04-21T20:32:41.387Z,11.71
2023-04-21T20:35:16.749Z,11.68
2023-04-21T20:37:48.120Z,11.64
2023-04-21T20:40:21.785Z,11.62
2023-04-21T20:42:53.488Z,11.60
2023-04-21T20:45:26.185Z,11.56
2023-04-21T20:47:58.022Z,11.54
2023-04-21T20:50:29.972Z,11.50
2023-04-21T20:53:02.266Z,11.50
2023-04-21T20:55:34.105Z,11.46
2023-04-21T20:58:06.294Z,11.46
2023-04-21T21:00:38.009Z,11.44
2023-04-21T21:03:11.807Z,11.44
2023-04-21T21:05:43.799Z,11.44
2023-04-21T21:08:15.461Z,11.43
2023-04-21T21:10:47.534Z,11.44
2023-04-21T21:13:19.180Z,11.45
2023-04-21T21:15:50.718Z,11.46
2023-04-21T21:18:22.395Z,11.45
2023-04-21T21:20:54.096Z,11.43
2023-04-21T21:23:26.238Z,11.41
2023-04-21T21:25:58.695Z,11.39
2023-04-21T21:28:31.051Z,11.36
2023-04-21T21:31:02.814Z,11.32
2023-04-21T21:33:35.190Z,11.28
2023-04-21T21:36:07.326Z,11.24
2023-04-21T21:38:39.465Z,11.23
2023-04-21T21:41:12.330Z,11.19
2023-04-21T21:43:44.347Z,11.15
2023-04-21T21:46:16.515Z,11.10
2023-04-21T21:48:48.418Z,11.05
2023-04-21T21:51:20.049Z,10.99
2023-04-21T21:53:51.686Z,10.93
2023-04-21T21:56:25.813Z,10.90
2023-04-21T21:58:57.619Z,10.86
2023-04-21T22:01:29.241Z,10.83
2023-04-21T22:04:01.039Z,10.79
2023-04-21T22:06:34.985Z,10.77
2023-04-21T22:09:06.797Z,10.74
2023-04-21T22:11:38.325Z,10.72
2023-04-21T22:14:21.781Z,10.69
2023-04-21T22:16:45.484Z,10.65
2023-04-21T22:19:19.233Z,10.62
2023-04-21T22:21:51.031Z,10.61
2023-04-21T22:24:22.813Z,10.59
2023-04-21T22:26:54.498Z,10.57
2023-04-21T22:29:26.267Z,10.54
2023-04-21T22:31:57.991Z,10.52
2023-04-21T22:34:29.551Z,10.49
2023-04-21T22:37:02.360Z,10.47
2023-04-21T22:39:34.745Z,10.46
2023-04-21T22:42:08.054Z,10.46
2023-04-21T22:44:39.652Z,10.42
2023-04-21T22:47:12.209Z,10.39
2023-04-21T22:49:43.859Z,10.41
2023-04-21T22:52:15.870Z,10.42
2023-04-21T22:54:47.559Z,10.42
2023-04-21T22:57:19.166Z,10.44
2023-04-21T22:59:50.706Z,10.47
2023-04-21T23:02:22.368Z,10.52
2023-04-21T23:04:55.878Z,10.54
2023-04-21T23:07:27.381Z,10.55
2023-04-21T23:09:59.476Z,10.56
2023-04-21T23:12:31.287Z,10.55
2023-04-21T23:15:02.951Z,10.53
2023-04-21T23:17:35.301Z,10.51
2023-04-21T23:20:08.528Z,10.47
2023-04-21T23:22:41.668Z,10.45
2023-04-21T23:25:13.527Z,10.42
2023-04-21T23:27:45.719Z,10.42
2023-04-21T23:30:17.593Z,10.40
2023-04-21T23:32:50.517Z,10.39
2023-04-21T23:35:22.201Z,10.38
2023-04-21T23:37:54.448Z,10.35
2023-04-21T23:40:25.997Z,10.32
2023-04-21T23:42:58.025Z,10.30
2023-04-21T23:45:30.211Z,10.27
2023-04-21T23:48:02.259Z,10.24
2023-04-21T23:50:34.094Z,10.22
2023-04-21T23:53:05.705Z,10.20
2023-04-21T23:55:37.652Z,10.16
2023-04-21T23:58:09.574Z,10.15
